Ghayl Ba Wazir, Yemen
Current Conditions -  °F | °C
As of 12:00 PM on Saturday 20 Dec 2014 (Local Time) from OYRN Reporting Station
Clear Clear  
Wind Chill: 82°   Ceiling: Unl
Heat Index: 83°   Visibility: 5mi
Dew Point: 63°   Wind: 14mph
Humidity: 51%   Direction: 140°SE
Pressure: 30.03"   Gusts: NA
Location:  14.77°N, 49.37°E
Report Text: OYRN 200900Z 14012KT 8000 NSC 28/17 Q1017
Loading
Personal Weather Stations






























Interactive Weather Map New forecast layout! Learn more

10-Day Weather Forecast

Advertisements
Track Severe Weather on mobile